This is the latest recevied weather packets stored in our database for station/object KY4GW. If no packets are shown the sender has not sent any weather packets the latest 1 day(s).
| Time | Temp. | Humidity | Pressure | Rain* | Wind** | Luminosity | Snow |
|---|---|---|---|---|---|---|---|
| 1777987311 | 18.89° C | 64% | 1013.8 hPa | 0 mm | 0 m/s | 218 W/m² | - |
| 1777987007 | 18.89° C | 64% | 1013.8 hPa | 0 mm | 0 m/s | 232 W/m² | - |
| 1777986705 | 18.89° C | 63% | 1013.8 hPa | 0 mm | 0.89 m/s, 234° | 254 W/m² | - |
| 1777986403 | 18.89° C | 63% | 1013.8 hPa | 0 mm | 0.89 m/s, 216° | 203 W/m² | - |
| 1777986101 | 18.89° C | 64% | 1013.8 hPa | 0 mm | 0 m/s | 219 W/m² | - |
| 1777985797 | 18.89° C | 62% | 1014.1 hPa | 0 mm | 0.89 m/s, 246° | 236 W/m² | - |
| 1777985495 | 18.89° C | 65% | 1014.1 hPa | 0 mm | 0 m/s | 228 W/m² | - |
| 1777985191 | 19.44° C | 63% | 1014.1 hPa | 0 mm | 0 m/s | 212 W/m² | - |
| 1777984888 | 19.44° C | 65% | 1013.8 hPa | 0 mm | 0 m/s | 201 W/m² | - |
| 1777984587 | 19.44° C | 63% | 1013.8 hPa | 0 mm | 0 m/s | 200 W/m² | - |
| 1777984280 | 18.89° C | 65% | 1013.8 hPa | 0 mm | 0 m/s | 188 W/m² | - |
| 1777983977 | 18.89° C | 65% | 1013.8 hPa | 0 mm | 0 m/s | 172 W/m² | - |
| 1777983674 | 18.33° C | 69% | 1013.8 hPa | 0 mm | 0 m/s | 143 W/m² | - |
| 1777983365 | 18.33° C | 68% | 1013.8 hPa | 0 mm | 0 m/s | 121 W/m² | - |
| 1777983062 | 18.89° C | 68% | 1013.8 hPa | 0 mm | 0 m/s | 114 W/m² | - |
| 1777982758 | 18.33° C | 68% | 1013.8 hPa | 0 mm | 0 m/s | 110 W/m² | - |
| 1777982454 | 17.78° C | 70% | 1013.8 hPa | 0 mm | 0 m/s | 115 W/m² | - |
| 1777982148 | 17.22° C | 72% | 1013.8 hPa | 0 mm | 0 m/s | 103 W/m² | - |
| 1777981846 | 16.67° C | 73% | 1013.8 hPa | 0 mm | 0 m/s | 94 W/m² | - |
| 1777981543 | 16.11° C | 73% | 1013.8 hPa | 0 mm | 0 m/s | 73 W/m² | - |
| 1777981239 | 15.56° C | 75% | 1013.8 hPa | 0 mm | 0 m/s | 61 W/m² | - |
| 1777980936 | 15.56° C | 74% | 1013.8 hPa | 0 mm | 0 m/s | 52 W/m² | - |
| 1777980632 | 15.56° C | 76% | 1014.1 hPa | 0 mm | 0 m/s | 43 W/m² | - |
| 1777980328 | 15.56° C | 78% | 1014.1 hPa | 0 mm | 0 m/s | 38 W/m² | - |
| 1777980027 | 15.56° C | 76% | 1014.1 hPa | 0 mm | 0 m/s | 29 W/m² | - |
* Rain latest hour (hover to see other rain measurements)
** Current wind speed in m/s (hover to see current wind gust speed)